Time;durP1;ratioP1;P1;durP2;ratioP2;P2;SDS_P1;SDS_P2;PMS_P1;PMS_P2;Temp;Humidity;BMP_temperature;BMP_pressure;BME280_temperature;BME280_humidity;BME280_pressure;Samples;Min_cycle;Max_cycle;Signal;HPM_P1;HPM_P2
2023/09/13 00:00:32;;;;;;;9.73;4.80;;;;;;;19.76;94.13;101431.63;5057494;27;97772;-27
2023/09/13 00:02:57;;;;;;;10.55;4.57;;;;;;;19.75;93.91;101426.25;5057650;27;96637;-28
2023/09/13 00:05:23;;;;;;;11.18;4.85;;;;;;;19.77;94.08;101430.59;5058295;27;96769;-27
2023/09/13 00:07:48;;;;;;;9.00;4.57;;;;;;;19.80;93.92;101434.94;5057476;27;98237;-28
2023/09/13 00:10:14;;;;;;;8.88;4.25;;;;;;;19.80;93.70;101435.81;5057416;27;97972;-28
2023/09/13 00:12:39;;;;;;;8.23;4.47;;;;;;;19.82;93.71;101436.56;5057135;27;96707;-27
2023/09/13 00:15:05;;;;;;;9.10;4.63;;;;;;;19.85;93.71;101430.75;5057705;27;96821;-27
2023/09/13 00:17:30;;;;;;;9.52;5.00;;;;;;;19.84;93.42;101428.16;5056748;27;99611;-27
2023/09/13 00:19:58;;;;;;;7.85;4.57;;;;;;;19.86;93.35;101431.66;5057021;27;99308;-27
2023/09/13 00:22:24;;;;;;;10.13;5.00;;;;;;;19.90;93.56;101433.09;5039099;27;96872;-27
2023/09/13 00:24:49;;;;;;;8.68;5.03;;;;;;;19.90;93.95;101436.72;5057675;27;96754;-27
2023/09/13 00:27:14;;;;;;;10.27;5.00;;;;;;;19.84;93.36;101428.16;5056931;27;97571;-27
2023/09/13 00:29:40;;;;;;;8.88;4.93;;;;;;;19.87;94.21;101434.25;5057140;27;99345;-27
2023/09/13 00:32:05;;;;;;;10.05;4.70;;;;;;;19.90;93.82;101430.34;5057038;27;96624;-27
2023/09/13 00:34:31;;;;;;;10.10;5.00;;;;;;;19.88;94.16;101424.13;5056407;27;96703;-27
2023/09/13 00:36:57;;;;;;;10.30;5.13;;;;;;;19.92;93.99;101437.44;5037991;27;101296;-27
2023/09/13 00:39:23;;;;;;;9.52;4.88;;;;;;;19.92;93.70;101425.56;5038666;27;99333;-27
2023/09/13 00:41:48;;;;;;;7.22;4.20;;;;;;;19.92;93.99;101423.69;5056988;27;96607;-28
2023/09/13 00:44:13;;;;;;;8.65;4.55;;;;;;;19.96;93.88;101426.19;5056919;27;96823;-28
2023/09/13 00:46:40;;;;;;;12.05;5.32;;;;;;;19.96;94.33;101428.94;5056493;27;98013;-27
2023/09/13 00:49:06;;;;;;;12.10;4.72;;;;;;;19.90;94.64;101414.72;5056590;27;98828;-28
2023/09/13 00:51:31;;;;;;;8.00;4.53;;;;;;;19.94;94.30;101413.41;5057043;27;96668;-28
2023/09/13 00:53:57;;;;;;;8.02;4.45;;;;;;;19.96;94.67;101413.28;5057092;27;96810;-27
2023/09/13 00:56:23;;;;;;;7.05;4.47;;;;;;;19.93;94.83;101413.59;5038319;27;100748;-28
2023/09/13 00:58:51;;;;;;;9.82;4.95;;;;;;;19.91;94.74;101408.22;5038257;27;100442;-27
2023/09/13 01:01:17;;;;;;;9.20;4.82;;;;;;;19.91;95.38;101407.34;5056255;27;96719;-28
2023/09/13 01:03:43;;;;;;;7.35;4.55;;;;;;;19.90;95.21;101413.84;5056632;27;96858;-27
2023/09/13 01:06:09;;;;;;;8.95;4.15;;;;;;;19.90;95.16;101414.72;5037938;27;101276;-28
2023/09/13 01:08:39;;;;;;;9.98;4.82;;;;;;;19.85;95.02;101397.75;5037822;27;100751;-28
2023/09/13 01:11:06;;;;;;;9.43;4.85;;;;;;;19.87;95.32;101406.75;5038418;27;96709;-27
2023/09/13 01:13:32;;;;;;;9.10;4.82;;;;;;;19.84;95.69;101409.78;5056809;27;96745;-29
2023/09/13 01:16:19;;;;;;;7.75;4.57;;;;;;;19.85;95.83;101414.25;5056212;27;97966;-27
2023/09/13 01:18:55;;;;;;;7.25;4.03;;;;;;;19.82;95.23;101409.06;5056418;27;99183;-27
2023/09/13 01:21:54;;;;;;;9.05;4.57;;;;;;;19.81;95.58;101412.81;5038251;27;96745;-27
2023/09/13 01:24:30;;;;;;;9.27;4.65;;;;;;;19.80;95.28;101408.31;5056721;27;96833;-27
2023/09/13 01:27:24;;;;;;;9.45;4.70;;;;;;;19.79;95.19;101416.72;5037137;27;100980;-27
2023/09/13 01:29:51;;;;;;;8.93;4.97;;;;;;;19.73;95.03;101409.91;5056103;27;97653;-28
2023/09/13 01:32:16;;;;;;;10.18;5.10;;;;;;;19.68;95.49;101403.94;5038060;27;96574;-29
2023/09/13 01:34:42;;;;;;;10.70;5.93;;;;;;;19.69;95.35;101408.47;5056350;27;96823;-27
2023/09/13 01:37:07;;;;;;;9.50;5.22;;;;;;;19.68;95.47;101402.06;5056091;27;97955;-27
2023/09/13 01:39:33;;;;;;;8.95;5.57;;;;;;;19.62;95.44;101401.75;5055894;27;97836;-27
2023/09/13 01:42:07;;;;;;;8.38;4.35;;;;;;;19.62;95.62;101399.00;5056190;27;96879;-28
2023/09/13 01:44:36;;;;;;;9.23;4.97;;;;;;;19.53;95.66;101389.69;5037864;27;96884;-27
2023/09/13 01:47:04;;;;;;;9.02;5.10;;;;;;;19.49;95.60;101383.59;5036166;27;101718;-28
2023/09/13 01:49:31;;;;;;;8.93;4.93;;;;;;;19.46;95.76;101386.63;5037353;27;100431;-27
2023/09/13 01:51:57;;;;;;;11.18;5.10;;;;;;;19.45;95.67;101395.91;5037368;27;96649;-27
2023/09/13 01:54:22;;;;;;;8.10;5.00;;;;;;;19.45;96.04;101401.41;5037494;27;96748;-27
2023/09/13 01:56:48;;;;;;;8.20;4.38;;;;;;;19.40;95.91;101405.56;5055461;27;99339;-27
2023/09/13 01:59:13;;;;;;;7.50;4.40;;;;;;;19.38;96.02;101407.56;5055650;27;97711;-27
2023/09/13 02:01:39;;;;;;;9.30;4.80;;;;;;;19.36;95.62;101404.97;5055875;27;96606;-28
2023/09/13 02:04:05;;;;;;;11.25;4.25;;;;;;;19.35;95.72;101411.47;5055784;27;96849;-28
2023/09/13 02:06:31;;;;;;;9.30;4.88;;;;;;;19.35;95.91;101413.34;5037135;27;100860;-27
2023/09/13 02:08:56;;;;;;;8.55;4.57;;;;;;;19.30;95.84;101411.88;5055642;27;99161;-27
2023/09/13 02:11:21;;;;;;;8.48;4.35;;;;;;;19.31;95.46;101415.50;5055546;27;96714;-27
2023/09/13 02:13:47;;;;;;;9.13;4.13;;;;;;;19.25;95.86;101410.56;5055944;27;96748;-27
2023/09/13 02:16:12;;;;;;;10.85;4.65;;;;;;;19.22;95.86;101410.84;5054839;27;97930;-27
2023/09/13 02:18:38;;;;;;;7.75;4.40;;;;;;;19.23;95.76;101412.56;5055003;27;99433;-27
2023/09/13 02:21:04;;;;;;;10.05;4.88;;;;;;;19.22;95.98;101416.31;5020715;27;96479;-28
2023/09/13 02:23:29;;;;;;;11.90;4.97;;;;;;;19.18;95.80;101417.59;5055313;27;96791;-27
2023/09/13 02:25:54;;;;;;;10.38;5.30;;;;;;;19.16;96.21;101411.38;5055657;27;97325;-27
2023/09/13 02:28:20;;;;;;;12.10;4.72;;;;;;;19.19;96.02;101425.72;5054726;27;99100;-27
2023/09/13 02:30:46;;;;;;;7.60;4.60;;;;;;;19.18;96.03;101432.19;5055456;27;96876;-28
2023/09/13 02:33:12;;;;;;;8.38;4.35;;;;;;;19.15;95.83;101423.38;5037637;27;96923;-28
2023/09/13 02:35:37;;;;;;;11.27;4.55;;;;;;;19.14;96.06;101428.00;5055358;27;97758;-27
2023/09/13 02:38:02;;;;;;;11.50;4.65;;;;;;;19.16;95.90;101434.19;5055263;27;97282;-27
2023/09/13 02:40:28;;;;;;;8.30;4.22;;;;;;;19.16;95.69;101445.19;5054550;27;96592;-28
2023/09/13 02:42:53;;;;;;;8.63;4.88;;;;;;;19.13;95.83;101447.34;5053789;27;96871;-27
2023/09/13 02:45:19;;;;;;;8.65;4.75;;;;;;;19.14;95.91;101443.59;5036557;27;101091;-28
2023/09/13 02:47:44;;;;;;;9.98;4.63;;;;;;;19.14;95.86;101446.34;5055284;27;97890;-28
2023/09/13 02:50:10;;;;;;;7.78;4.50;;;;;;;19.12;96.31;101438.25;5055274;27;96482;-27
2023/09/13 02:52:35;;;;;;;9.80;5.13;;;;;;;19.09;95.86;101441.25;5036765;27;96853;-28
2023/09/13 02:55:05;;;;;;;10.07;4.95;;;;;;;19.07;96.20;101441.41;5054969;27;97409;-28
2023/09/13 02:57:31;;;;;;;12.25;5.20;;;;;;;19.03;96.19;101437.19;5039508;27;99484;-28
2023/09/13 02:59:57;;;;;;;11.18;5.88;;;;;;;19.05;96.24;101437.91;5043275;27;96757;-28
2023/09/13 03:02:22;;;;;;;11.20;5.32;;;;;;;19.04;96.05;101446.28;5061959;27;96761;-27
2023/09/13 03:04:52;;;;;;;11.90;5.85;;;;;;;19.04;95.90;101438.03;5060967;27;97756;-29
2023/09/13 03:07:18;;;;;;;11.05;5.43;;;;;;;19.04;95.94;101447.16;5043031;27;101274;-28
2023/09/13 03:09:52;;;;;;;11.60;6.03;;;;;;;19.03;96.48;101450.91;5043140;27;96696;-27
2023/09/13 03:12:17;;;;;;;12.02;6.10;;;;;;;19.02;96.38;101443.69;5061598;27;96700;-28
2023/09/13 03:14:43;;;;;;;11.45;5.97;;;;;;;18.98;96.29;101433.97;5061527;27;98013;-27
2023/09/13 03:17:11;;;;;;;10.45;6.35;;;;;;;19.03;95.79;101448.16;5061397;27;97798;-27
2023/09/13 03:19:36;;;;;;;10.95;5.85;;;;;;;19.02;96.37;101440.94;5061631;27;96568;-27
2023/09/13 03:22:02;;;;;;;14.18;6.75;;;;;;;19.00;96.56;101453.94;5062055;27;96921;-27
2023/09/13 03:24:27;;;;;;;16.13;7.10;;;;;;;18.94;96.59;101446.22;5061322;27;98058;-28
2023/09/13 03:26:53;;;;;;;10.25;6.07;;;;;;;18.94;96.53;101446.22;5042493;27;100981;-27
2023/09/13 03:29:18;;;;;;;10.57;6.35;;;;;;;18.96;95.78;101446.97;5060563;27;96672;-28
2023/09/13 03:31:43;;;;;;;11.95;6.82;;;;;;;18.98;96.00;101450.44;5061563;27;96766;-27
2023/09/13 03:34:09;;;;;;;12.32;6.53;;;;;;;18.97;96.49;101445.94;5061058;27;99042;-27
2023/09/13 03:36:34;;;;;;;14.48;7.05;;;;;;;18.96;96.42;101452.44;5060877;27;99239;-27
2023/09/13 03:39:00;;;;;;;13.60;6.35;;;;;;;18.97;95.87;101451.44;5061327;27;96478;-27
2023/09/13 03:41:27;;;;;;;15.07;7.10;;;;;;;18.94;95.84;101454.44;5060992;27;96858;-28
2023/09/13 03:43:53;;;;;;;13.48;6.95;;;;;;;18.95;96.17;101452.56;5041984;27;101425;-28
2023/09/13 03:46:19;;;;;;;9.63;6.25;;;;;;;18.87;96.22;101448.63;5061503;27;97319;-27
2023/09/13 03:48:44;;;;;;;8.90;5.85;;;;;;;18.89;96.06;101452.09;5042853;27;96609;-27
2023/09/13 03:51:10;;;;;;;12.38;6.20;;;;;;;18.84;96.33;101448.03;5061381;27;96686;-27
2023/09/13 03:53:35;;;;;;;12.45;6.15;;;;;;;18.85;96.33;101449.75;5060308;27;98873;-28
2023/09/13 03:56:02;;;;;;;11.73;6.05;;;;;;;18.85;96.38;101447.00;5060963;27;97878;-30
2023/09/13 03:58:28;;;;;;;11.32;6.10;;;;;;;18.89;96.21;101459.47;5042762;27;96644;-27
2023/09/13 04:00:55;;;;;;;10.38;5.72;;;;;;;18.90;96.40;101461.22;5042595;27;96846;-27
2023/09/13 04:03:21;;;;;;;12.80;5.75;;;;;;;18.86;96.46;101454.25;5042278;27;100834;-28
2023/09/13 04:05:47;;;;;;;8.82;5.22;;;;;;;18.84;96.69;101445.28;5060804;27;97291;-27
2023/09/13 04:08:12;;;;;;;12.25;6.53;;;;;;;18.84;96.57;101453.53;5060707;27;96574;-28
2023/09/13 04:10:37;;;;;;;11.13;6.03;;;;;;;18.85;96.65;101460.75;5057366;27;96772;-27
2023/09/13 04:13:03;;;;;;;13.32;6.07;;;;;;;18.84;96.31;101456.28;5057414;27;97990;-27
2023/09/13 04:15:29;;;;;;;10.45;5.05;;;;;;;18.85;96.72;101449.75;5057727;27;97227;-28
2023/09/13 04:17:55;;;;;;;12.25;5.97;;;;;;;18.86;96.70;101448.78;5056856;27;96627;-27
2023/09/13 04:20:21;;;;;;;10.48;4.97;;;;;;;18.85;96.81;101450.66;5057607;27;96775;-27
2023/09/13 04:22:46;;;;;;;10.43;5.20;;;;;;;18.86;96.96;101457.88;5057190;27;98122;-28
2023/09/13 04:25:12;;;;;;;12.98;6.00;;;;;;;18.85;96.75;101461.63;5057123;27;99517;-27
2023/09/13 04:27:37;;;;;;;8.82;5.00;;;;;;;18.91;96.17;101462.97;5057357;27;96714;-27
2023/09/13 04:30:03;;;;;;;11.00;5.28;;;;;;;18.91;96.94;101462.97;5057360;27;96530;-27
2023/09/13 04:32:28;;;;;;;11.68;5.55;;;;;;;18.93;96.60;101463.72;5057400;27;97425;-28
2023/09/13 04:34:54;;;;;;;8.48;4.97;;;;;;;18.92;96.95;101461.94;5057315;27;98758;-27
2023/09/13 04:37:20;;;;;;;11.60;5.32;;;;;;;18.93;97.06;101457.34;5057254;27;96638;-28
2023/09/13 04:39:46;;;;;;;9.98;4.75;;;;;;;18.94;96.90;101459.94;5057072;27;96812;-27
2023/09/13 04:42:11;;;;;;;10.02;5.53;;;;;;;18.89;97.06;101463.09;5056480;27;97406;-29
2023/09/13 04:44:37;;;;;;;11.98;5.35;;;;;;;18.93;96.87;101465.59;5056414;27;99202;-27
2023/09/13 04:47:03;;;;;;;9.43;4.65;;;;;;;18.88;96.75;101463.25;5057143;27;96590;-28
2023/09/13 04:49:29;;;;;;;8.77;4.35;;;;;;;18.85;97.32;101461.63;5038566;27;96860;-28
2023/09/13 04:51:56;;;;;;;9.73;4.78;;;;;;;18.87;97.28;101475.22;5056865;27;97343;-27
2023/09/13 04:54:22;;;;;;;8.63;4.47;;;;;;;18.83;96.89;101468.22;5038166;27;100907;-28
2023/09/13 04:56:51;;;;;;;12.48;4.43;;;;;;;18.87;96.73;101472.47;5038317;27;96694;-28
2023/09/13 04:59:17;;;;;;;10.98;4.95;;;;;;;18.87;96.82;101466.97;5038937;27;96878;-28
2023/09/13 05:01:43;;;;;;;9.57;4.70;;;;;;;18.87;96.99;101472.47;5038112;27;101058;-27
2023/09/13 05:04:09;;;;;;;10.63;4.43;;;;;;;18.82;96.84;101472.84;5038098;27;100977;-29
2023/09/13 05:06:35;;;;;;;7.88;4.60;;;;;;;18.88;96.84;101487.94;5037904;27;96582;-27
2023/09/13 05:09:01;;;;;;;8.00;4.47;;;;;;;18.83;98.04;101498.44;5056596;27;96862;-27
2023/09/13 05:11:26;;;;;;;9.30;3.80;;;;;;;18.73;98.00;101505.69;5038115;27;100755;-27
2023/09/13 05:14:08;;;;;;;5.60;2.92;;;;;;;18.57;98.25;101501.53;5056434;27;97232;-28
2023/09/13 05:16:33;;;;;;;5.05;2.40;;;;;;;18.53;97.46;101508.25;5056648;27;96625;-27
2023/09/13 05:18:59;;;;;;;5.55;1.88;;;;;;;18.46;96.65;101501.56;5056635;27;96856;-28
2023/09/13 05:21:24;;;;;;;4.35;1.63;;;;;;;18.43;97.17;101512.78;5056224;27;100943;-28
2023/09/13 05:23:49;;;;;;;3.67;1.23;;;;;;;18.36;96.70;101514.31;5056365;27;97773;-27
2023/09/13 05:26:15;;;;;;;2.63;1.00;;;;;;;18.36;96.56;101522.53;5056449;27;96716;-27
2023/09/13 05:28:40;;;;;;;10.25;1.40;;;;;;;18.29;96.11;101532.28;5056391;27;96833;-27
2023/09/13 05:31:06;;;;;;;3.58;0.80;;;;;;;18.13;95.23;101528.06;5055699;27;97898;-27
2023/09/13 05:33:33;;;;;;;4.63;1.15;;;;;;;18.17;96.58;101546.00;5056227;27;97826;-28
2023/09/13 05:35:59;;;;;;;3.58;0.85;;;;;;;18.16;96.29;101555.25;5037856;27;96672;-27
2023/09/13 05:38:24;;;;;;;2.97;0.55;;;;;;;18.09;95.66;101555.84;5056251;27;96815;-27
2023/09/13 05:40:50;;;;;;;3.75;0.50;;;;;;;17.96;95.61;101554.13;5055490;27;97900;-28
2023/09/13 05:43:15;;;;;;;0.80;0.40;;;;;;;17.99;95.69;101575.78;5055425;27;97365;-28
2023/09/13 05:45:40;;;;;;;1.88;0.38;;;;;;;17.92;94.89;101574.53;5036158;27;97085;-31
2023/09/13 05:48:06;;;;;;;2.92;0.25;;;;;;;17.84;94.33;101577.03;5054720;27;97105;-27
2023/09/13 05:50:31;;;;;;;0.80;0.32;;;;;;;17.74;93.92;101582.38;5055362;27;97372;-27
2023/09/13 05:52:57;;;;;;;0.77;0.40;;;;;;;17.67;93.61;101592.06;5055462;27;97955;-28
2023/09/13 05:55:22;;;;;;;2.90;0.60;;;;;;;17.55;92.77;101587.56;5054275;27;96675;-28
2023/09/13 05:57:50;;;;;;;0.98;0.30;;;;;;;17.46;92.55;101596.50;5055781;27;96799;-27
2023/09/13 06:00:16;;;;;;;1.48;0.50;;;;;;;17.32;92.66;101601.19;5055402;27;98010;-27
2023/09/13 06:02:41;;;;;;;3.47;0.80;;;;;;;17.32;93.26;101595.72;5055566;27;97976;-27
2023/09/13 06:05:09;;;;;;;1.20;0.70;;;;;;;17.27;92.62;101616.25;5055182;27;96600;-29
2023/09/13 06:07:35;;;;;;;1.48;0.60;;;;;;;17.16;92.09;101617.06;5053207;27;98155;-32
2023/09/13 06:10:01;;;;;;;5.38;1.02;;;;;;;17.26;92.38;101631.81;5031524;27;101038;-28
2023/09/13 06:12:26;;;;;;;2.05;0.52;;;;;;;17.20;92.58;101645.97;5051504;27;99325;-32
2023/09/13 06:14:55;;;;;;;1.92;0.75;;;;;;;17.17;92.57;101635.25;5052013;27;96653;-35
2023/09/13 06:17:21;;;;;;;2.05;0.50;;;;;;;17.21;91.81;101658.69;5051649;27;97294;-33
2023/09/13 06:19:48;;;;;;;2.83;0.50;;;;;;;17.25;92.17;101662.91;5032254;27;100972;-31
2023/09/13 06:22:13;;;;;;;2.33;0.40;;;;;;;17.21;91.57;101653.19;5052525;27;98411;-30
2023/09/13 06:24:39;;;;;;;3.55;0.63;;;;;;;17.19;91.65;101663.41;5054680;27;96964;-27
2023/09/13 06:27:04;;;;;;;1.08;0.60;;;;;;;17.26;91.27;101683.84;5055468;27;96897;-28
2023/09/13 06:29:29;;;;;;;3.90;0.75;;;;;;;17.19;90.62;101683.44;5055348;27;97500;-29
2023/09/13 06:31:55;;;;;;;2.03;0.60;;;;;;;17.16;91.09;101686.41;5054772;27;97437;-28
2023/09/13 06:34:21;;;;;;;1.75;0.60;;;;;;;17.15;90.83;101695.59;5055370;27;96579;-28
2023/09/13 06:36:48;;;;;;;1.25;0.75;;;;;;;17.10;90.52;101695.06;5055680;27;96787;-28
2023/09/13 06:39:14;;;;;;;0.63;0.40;;;;;;;17.04;90.60;101698.28;5036603;27;100862;-27
2023/09/13 06:41:39;;;;;;;4.75;1.00;;;;;;;17.00;90.06;101702.25;5054586;27;99324;-29
2023/09/13 06:44:09;;;;;;;2.30;0.80;;;;;;;16.97;90.00;101710.66;5054539;27;96723;-27
2023/09/13 06:46:38;;;;;;;2.25;0.75;;;;;;;16.97;90.41;101703.34;5055126;27;96746;-28
2023/09/13 06:49:04;;;;;;;4.90;0.60;;;;;;;16.93;90.08;101725.59;5055004;27;97343;-27
2023/09/13 06:51:29;;;;;;;1.65;0.80;;;;;;;16.95;90.28;101720.88;5036554;27;99245;-27
2023/09/13 06:53:55;;;;;;;4.53;0.60;;;;;;;16.98;90.00;101720.63;5036879;27;96710;-27
2023/09/13 06:56:20;;;;;;;2.97;1.00;;;;;;;16.95;90.25;101715.41;5055251;27;96749;-27
2023/09/13 06:58:46;;;;;;;1.98;0.77;;;;;;;17.03;89.95;101720.28;5054935;27;97401;-27
2023/09/13 07:01:12;;;;;;;1.95;0.50;;;;;;;17.06;89.78;101723.66;5055239;27;97725;-28
2023/09/13 07:03:37;;;;;;;1.27;0.65;;;;;;;17.07;88.81;101730.03;5036659;27;96723;-28
2023/09/13 07:06:03;;;;;;;2.60;0.80;;;;;;;17.04;88.63;101742.09;5055211;27;96468;-27
2023/09/13 07:08:28;;;;;;;0.98;0.45;;;;;;;16.97;88.56;101758.09;5054430;27;98498;-27
2023/09/13 07:10:55;;;;;;;2.50;0.57;;;;;;;16.96;88.43;101755.44;5054688;27;98285;-27
2023/09/13 07:13:20;;;;;;;3.88;0.63;;;;;;;16.97;88.43;101755.34;5036516;27;96510;-27
2023/09/13 07:15:46;;;;;;;0.55;0.45;;;;;;;17.08;88.07;101764.63;5055035;27;96832;-27
2023/09/13 07:18:12;;;;;;;1.60;0.50;;;;;;;17.34;87.71;101758.06;5054884;27;97231;-27
2023/09/13 07:20:37;;;;;;;1.92;0.60;;;;;;;17.62;85.76;101761.44;5054423;27;97890;-28
2023/09/13 07:23:03;;;;;;;4.25;0.73;;;;;;;17.72;85.26;101756.13;5055073;27;96493;-27
2023/09/13 07:25:28;;;;;;;0.85;0.50;;;;;;;17.73;85.31;101766.09;5055130;27;96800;-28
2023/09/13 07:27:53;;;;;;;2.70;0.75;;;;;;;17.71;85.13;101765.31;5054287;27;97397;-27
2023/09/13 07:30:19;;;;;;;1.35;0.50;;;;;;;17.71;85.42;101787.25;5054494;27;97652;-30
2023/09/13 07:32:47;;;;;;;1.13;0.20;;;;;;;17.63;85.71;101779.63;5053940;27;96514;-27
2023/09/13 07:35:13;;;;;;;1.45;0.35;;;;;;;17.55;84.69;101782.94;5036320;27;96923;-27
2023/09/13 07:37:38;;;;;;;0.85;0.57;;;;;;;17.76;85.18;101790.53;5054376;27;97951;-28
2023/09/13 07:40:04;;;;;;;1.67;0.55;;;;;;;17.93;84.49;101789.25;5054370;27;97763;-28
2023/09/13 07:42:30;;;;;;;2.10;0.40;;;;;;;17.99;84.13;101789.63;5054173;27;96479;-28
2023/09/13 07:44:55;;;;;;;0.88;0.43;;;;;;;17.87;83.46;101773.28;5037841;27;96855;-27
2023/09/13 07:47:22;;;;;;;1.08;0.32;;;;;;;17.93;83.75;101787.38;5057257;27;99257;-27
2023/09/13 07:49:47;;;;;;;2.15;0.43;;;;;;;17.87;83.55;101793.31;5039652;27;100937;-27
2023/09/13 07:52:14;;;;;;;0.95;0.32;;;;;;;17.73;83.09;101783.44;5057997;27;96638;-27
2023/09/13 07:54:39;;;;;;;1.42;0.50;;;;;;;17.77;82.82;101790.38;5057837;27;96809;-28
2023/09/13 07:57:05;;;;;;;2.55;0.40;;;;;;;17.75;82.37;101797.00;5057009;27;99324;-27
2023/09/13 07:59:31;;;;;;;1.08;0.52;;;;;;;17.76;83.25;101804.22;5057619;27;97387;-29
2023/09/13 08:01:56;;;;;;;1.08;0.60;;;;;;;17.78;82.75;101810.44;5039116;27;96717;-29
2023/09/13 08:04:22;;;;;;;1.88;0.88;;;;;;;17.79;82.96;101823.19;5058013;27;96832;-27
2023/09/13 08:06:47;;;;;;;3.25;0.57;;;;;;;17.73;82.78;101819.06;5057268;27;99385;-28
2023/09/13 08:09:16;;;;;;;1.23;0.52;;;;;;;17.76;81.61;101827.03;5057564;27;97285;-27
2023/09/13 08:11:42;;;;;;;0.50;0.40;;;;;;;17.82;81.53;101825.72;5057622;27;96637;-27
2023/09/13 08:14:07;;;;;;;1.08;0.50;;;;;;;17.88;81.72;101846.31;5057856;27;96833;-28
2023/09/13 08:16:32;;;;;;;0.77;0.40;;;;;;;17.89;81.05;101840.69;5057286;27;97347;-28
2023/09/13 08:18:58;;;;;;;1.27;0.50;;;;;;;18.00;80.86;101845.38;5057664;27;97150;-28
2023/09/13 08:21:23;;;;;;;1.42;0.68;;;;;;;18.09;79.10;101854.72;5056944;27;96496;-27
2023/09/13 08:23:49;;;;;;;2.63;0.52;;;;;;;18.12;80.86;101855.38;5057438;27;96792;-28
2023/09/13 08:26:16;;;;;;;1.30;0.50;;;;;;;18.28;80.54;101867.88;5056694;27;106311;-28
2023/09/13 08:28:41;;;;;;;1.08;0.40;;;;;;;18.33;79.03;101871.13;5057065;27;97827;-27
2023/09/13 08:31:07;;;;;;;1.55;0.30;;;;;;;18.38;79.17;101868.94;5057359;27;96732;-27
2023/09/13 08:33:32;;;;;;;1.90;0.50;;;;;;;18.53;78.64;101867.72;5057566;27;96857;-27
2023/09/13 08:35:57;;;;;;;0.50;0.38;;;;;;;18.63;78.96;101874.22;5038550;27;100739;-27
2023/09/13 08:38:23;;;;;;;0.90;0.47;;;;;;;18.79;78.05;101882.16;5057342;27;98310;-28
2023/09/13 08:40:49;;;;;;;2.13;0.45;;;;;;;18.81;77.75;101880.16;5057286;27;96517;-27
2023/09/13 08:43:15;;;;;;;1.83;0.65;;;;;;;18.88;75.38;101875.91;5056294;27;96860;-28
2023/09/13 08:45:42;;;;;;;0.75;0.32;;;;;;;19.07;76.50;101885.44;5056321;27;99385;-27
2023/09/13 08:48:09;;;;;;;0.55;0.40;;;;;;;19.44;75.31;101898.88;5038276;27;101617;-27
2023/09/13 08:50:36;;;;;;;1.00;0.50;;;;;;;19.59;74.70;101902.22;5038589;27;96639;-28
2023/09/13 08:53:03;;;;;;;2.67;0.60;;;;;;;19.55;74.06;101889.78;5057284;27;96625;-27
2023/09/13 08:55:31;;;;;;;0.80;0.43;;;;;;;19.58;74.06;101911.50;5037776;27;101133;-28
2023/09/13 08:57:57;;;;;;;2.20;0.68;;;;;;;19.61;73.53;101908.47;5056517;27;99359;-27
2023/09/13 09:00:28;;;;;;;1.27;0.57;;;;;;;19.65;73.47;101920.97;5038123;27;96640;-27
2023/09/13 09:02:58;;;;;;;1.03;0.40;;;;;;;19.70;74.33;101924.25;5039042;27;96746;-27
2023/09/13 09:05:26;;;;;;;1.00;0.40;;;;;;;19.76;72.83;101928.34;5038102;27;101068;-27
2023/09/13 09:07:52;;;;;;;1.17;0.38;;;;;;;19.87;73.28;101937.44;5038268;27;100868;-27
2023/09/13 09:10:18;;;;;;;2.85;0.63;;;;;;;19.92;73.20;101937.94;5056045;27;96669;-27
2023/09/13 09:12:47;;;;;;;1.30;0.47;;;;;;;19.92;73.24;101932.44;5038327;27;96874;-28
2023/09/13 09:15:14;;;;;;;1.63;0.73;;;;;;;19.91;73.35;101943.59;5037845;27;100814;-29
2023/09/13 09:17:41;;;;;;;2.22;0.57;;;;;;;19.99;73.87;101940.19;5037783;27;101068;-27
2023/09/13 09:20:07;;;;;;;2.42;0.77;;;;;;;20.17;73.83;101937.78;5038209;27;96875;-29
2023/09/13 09:22:33;;;;;;;1.60;0.65;;;;;;;20.28;73.79;101938.56;5038293;27;96658;-28
2023/09/13 09:24:59;;;;;;;2.40;0.88;;;;;;;20.26;72.35;101942.47;5056160;27;97989;-27
2023/09/13 09:27:25;;;;;;;1.65;0.60;;;;;;;20.31;72.92;101938.34;5037632;27;101234;-27
2023/09/13 09:30:00;;;;;;;1.02;0.57;;;;;;;20.31;71.98;101943.84;5056192;27;96685;-27
2023/09/13 09:32:32;;;;;;;1.02;0.52;;;;;;;20.13;71.97;101950.91;5038129;27;96764;-28
2023/09/13 09:34:59;;;;;;;0.95;0.52;;;;;;;19.91;73.75;101951.84;5037057;27;101651;-27
2023/09/13 09:37:34;;;;;;;0.93;0.57;;;;;;;19.67;73.43;101949.22;5037622;27;100888;-28
2023/09/13 09:40:01;;;;;;;1.95;0.80;;;;;;;19.60;73.37;101975.47;5037789;27;96789;-27
2023/09/13 09:42:29;;;;;;;1.70;0.82;;;;;;;19.57;74.19;101975.69;5037448;27;96968;-27
2023/09/13 09:44:55;;;;;;;1.85;0.73;;;;;;;19.57;73.27;101972.94;5037033;27;100894;-27
2023/09/13 09:47:21;;;;;;;3.05;0.88;;;;;;;19.54;73.99;101976.81;5055982;27;97838;-27
2023/09/13 09:49:47;;;;;;;1.65;0.75;;;;;;;19.62;74.47;101982.59;5037591;27;96614;-27
2023/09/13 09:52:14;;;;;;;1.55;0.77;;;;;;;19.68;74.15;101978.47;5038042;27;96854;-28
2023/09/13 09:54:39;;;;;;;2.75;0.88;;;;;;;19.64;73.90;101971.44;5055500;27;98053;-28
2023/09/13 09:57:06;;;;;;;1.48;0.70;;;;;;;19.63;73.71;101966.97;5055549;27;99289;-27
2023/09/13 09:59:36;;;;;;;2.88;0.73;;;;;;;19.77;73.42;101979.59;5037234;27;96746;-27
2023/09/13 10:02:03;;;;;;;2.30;1.00;;;;;;;19.91;72.80;101977.47;5055793;27;96685;-27
2023/09/13 10:04:28;;;;;;;2.78;0.82;;;;;;;20.13;71.35;101984.78;5037073;27;100978;-27
2023/09/13 10:06:57;;;;;;;1.58;0.80;;;;;;;20.35;71.65;101985.72;5054570;27;97367;-28
2023/09/13 10:09:22;;;;;;;2.60;0.73;;;;;;;20.48;70.89;101994.69;5037296;27;96588;-28
2023/09/13 10:11:54;;;;;;;1.60;0.75;;;;;;;20.49;70.95;101993.66;5055892;27;96810;-27
2023/09/13 10:14:27;;;;;;;1.75;0.77;;;;;;;20.64;69.00;101986.03;5037059;27;101320;-29
2023/09/13 10:16:54;;;;;;;1.52;0.82;;;;;;;20.96;69.45;101993.38;5037424;27;101166;-27
2023/09/13 10:19:28;;;;;;;1.75;0.80;;;;;;;21.24;69.33;101996.41;5037365;27;96468;-28
2023/09/13 10:21:55;;;;;;;2.70;0.77;;;;;;;21.67;67.99;102003.66;5055753;27;96665;-28
2023/09/13 10:24:23;;;;;;;1.50;0.77;;;;;;;21.82;66.43;101994.84;5036390;27;100842;-27
2023/09/13 10:26:52;;;;;;;2.70;1.05;;;;;;;21.99;66.04;101982.25;5036753;27;100689;-27
2023/09/13 10:29:34;;;;;;;2.92;0.77;;;;;;;22.01;66.04;101995.94;5037203;27;96696;-27
2023/09/13 10:32:02;;;;;;;2.28;0.80;;;;;;;22.02;64.58;101987.53;5037039;27;96636;-27
2023/09/13 10:34:33;;;;;;;2.95;0.60;;;;;;;22.06;65.22;102005.53;5055074;27;97221;-28
2023/09/13 10:37:27;;;;;;;3.17;0.43;;;;;;;22.34;60.65;102016.81;5036716;27;100997;-27
2023/09/13 10:40:17;;;;;;;1.17;0.52;;;;;;;22.26;62.77;102011.13;5037022;27;96596;-27
2023/09/13 10:42:44;;;;;;;0.47;0.20;;;;;;;22.48;61.78;102001.72;5037137;27;97000;-27
2023/09/13 10:45:17;;;;;;;1.77;0.40;;;;;;;22.74;62.44;102004.78;5036461;27;100932;-28
2023/09/13 10:47:43;;;;;;;0.38;0.30;;;;;;;23.18;61.02;102020.91;5054867;27;97459;-27
2023/09/13 10:50:09;;;;;;;0.45;0.30;;;;;;;23.45;59.18;102020.09;5036307;27;96589;-27
2023/09/13 10:52:35;;;;;;;0.47;0.28;;;;;;;23.14;59.66;102017.56;5055410;27;96813;-27
2023/09/13 10:55:06;;;;;;;0.45;0.15;;;;;;;22.83;61.42;102025.13;5036250;27;101496;-27
2023/09/13 10:57:34;;;;;;;0.17;0.13;;;;;;;22.57;61.87;102019.28;5055013;27;97438;-27
2023/09/13 11:00:00;;;;;;;1.70;0.55;;;;;;;22.31;62.27;102018.97;5036625;27;96649;-28
2023/09/13 11:02:28;;;;;;;0.57;0.35;;;;;;;22.04;63.03;102032.38;5054997;27;96874;-27
2023/09/13 11:04:53;;;;;;;1.00;0.52;;;;;;;21.65;64.56;102039.66;5036423;27;101645;-27
2023/09/13 11:07:19;;;;;;;0.22;0.10;;;;;;;21.40;65.49;102036.34;5054962;27;97895;-27
2023/09/13 11:09:47;;;;;;;0.45;0.20;;;;;;;21.16;65.69;102042.06;5054812;27;96505;-27
2023/09/13 11:12:13;;;;;;;0.82;0.32;;;;;;;20.91;64.81;102050.75;5036552;27;96917;-27
2023/09/13 11:14:46;;;;;;;4.75;0.57;;;;;;;20.66;66.05;102061.09;5054084;27;99382;-28
2023/09/13 11:17:37;;;;;;;0.70;0.40;;;;;;;20.37;67.18;102088.28;5036207;27;101091;-27
2023/09/13 11:20:38;;;;;;;0.90;0.60;;;;;;;20.08;67.83;102097.09;5039748;27;96728;-27